sensor_id;sensor_type;location;lat;lon;timestamp;P1;durP1;ratioP1;P2;durP2;ratioP2
3627;SDS011;1830;49.000;12.074;2023-12-04T00:02:02;42.33;;;22.10;;
3627;SDS011;1830;49.000;12.074;2023-12-04T00:04:29;44.73;;;20.67;;
3627;SDS011;1830;49.000;12.074;2023-12-04T00:06:56;48.37;;;21.97;;
3627;SDS011;1830;49.000;12.074;2023-12-04T00:09:24;50.23;;;21.77;;
3627;SDS011;1830;49.000;12.074;2023-12-04T00:11:52;39.40;;;19.57;;
3627;SDS011;1830;49.000;12.074;2023-12-04T00:14:19;46.57;;;21.10;;
3627;SDS011;1830;49.000;12.074;2023-12-04T00:16:45;42.23;;;20.13;;
3627;SDS011;1830;49.000;12.074;2023-12-04T00:19:12;45.00;;;21.33;;
3627;SDS011;1830;49.000;12.074;2023-12-04T00:21:39;41.37;;;20.20;;
3627;SDS011;1830;49.000;12.074;2023-12-04T00:24:06;40.90;;;20.93;;
3627;SDS011;1830;49.000;12.074;2023-12-04T00:26:34;40.50;;;19.80;;
3627;SDS011;1830;49.000;12.074;2023-12-04T00:29:00;42.63;;;20.33;;
3627;SDS011;1830;49.000;12.074;2023-12-04T00:31:27;44.83;;;20.33;;
3627;SDS011;1830;49.000;12.074;2023-12-04T00:33:54;46.17;;;21.53;;
3627;SDS011;1830;49.000;12.074;2023-12-04T00:36:21;38.03;;;20.10;;
3627;SDS011;1830;49.000;12.074;2023-12-04T00:38:47;40.30;;;18.80;;
3627;SDS011;1830;49.000;12.074;2023-12-04T00:41:14;42.17;;;19.30;;
3627;SDS011;1830;49.000;12.074;2023-12-04T00:43:43;39.93;;;20.07;;
3627;SDS011;1830;49.000;12.074;2023-12-04T00:46:09;43.03;;;21.03;;
3627;SDS011;1830;49.000;12.074;2023-12-04T00:48:36;42.80;;;19.50;;
3627;SDS011;1830;49.000;12.074;2023-12-04T00:51:03;46.87;;;21.87;;
3627;SDS011;1830;49.000;12.074;2023-12-04T00:53:30;38.27;;;19.23;;
3627;SDS011;1830;49.000;12.074;2023-12-04T00:55:57;44.57;;;19.83;;
3627;SDS011;1830;49.000;12.074;2023-12-04T00:58:24;42.87;;;20.37;;
3627;SDS011;1830;49.000;12.074;2023-12-04T01:00:52;38.63;;;18.37;;
3627;SDS011;1830;49.000;12.074;2023-12-04T01:03:18;45.93;;;22.23;;
3627;SDS011;1830;49.000;12.074;2023-12-04T01:05:45;41.03;;;19.20;;
3627;SDS011;1830;49.000;12.074;2023-12-04T01:08:12;44.47;;;19.97;;
3627;SDS011;1830;49.000;12.074;2023-12-04T01:10:39;40.77;;;20.23;;
3627;SDS011;1830;49.000;12.074;2023-12-04T01:13:06;36.70;;;18.63;;
3627;SDS011;1830;49.000;12.074;2023-12-04T01:15:32;40.80;;;19.47;;
3627;SDS011;1830;49.000;12.074;2023-12-04T01:18:00;37.83;;;19.70;;
3627;SDS011;1830;49.000;12.074;2023-12-04T01:20:27;36.47;;;18.67;;
3627;SDS011;1830;49.000;12.074;2023-12-04T01:22:54;33.77;;;17.03;;
3627;SDS011;1830;49.000;12.074;2023-12-04T01:25:21;34.30;;;17.40;;
3627;SDS011;1830;49.000;12.074;2023-12-04T01:27:48;37.90;;;17.97;;
3627;SDS011;1830;49.000;12.074;2023-12-04T01:30:14;36.77;;;16.80;;
3627;SDS011;1830;49.000;12.074;2023-12-04T01:32:41;36.90;;;17.47;;
3627;SDS011;1830;49.000;12.074;2023-12-04T01:35:09;34.83;;;18.20;;
3627;SDS011;1830;49.000;12.074;2023-12-04T01:37:36;38.93;;;18.33;;
3627;SDS011;1830;49.000;12.074;2023-12-04T01:40:04;43.27;;;19.27;;
3627;SDS011;1830;49.000;12.074;2023-12-04T01:42:32;39.00;;;19.27;;
3627;SDS011;1830;49.000;12.074;2023-12-04T01:44:59;42.33;;;18.37;;
3627;SDS011;1830;49.000;12.074;2023-12-04T01:47:25;37.67;;;16.93;;
3627;SDS011;1830;49.000;12.074;2023-12-04T01:49:52;40.50;;;19.40;;
3627;SDS011;1830;49.000;12.074;2023-12-04T01:52:20;45.77;;;21.10;;
3627;SDS011;1830;49.000;12.074;2023-12-04T01:54:47;51.97;;;18.00;;
3627;SDS011;1830;49.000;12.074;2023-12-04T01:57:14;43.80;;;17.13;;
3627;SDS011;1830;49.000;12.074;2023-12-04T01:59:41;43.30;;;19.57;;
3627;SDS011;1830;49.000;12.074;2023-12-04T02:02:08;42.67;;;19.73;;
3627;SDS011;1830;49.000;12.074;2023-12-04T02:04:36;43.33;;;19.47;;
3627;SDS011;1830;49.000;12.074;2023-12-04T02:07:03;35.03;;;16.80;;
3627;SDS011;1830;49.000;12.074;2023-12-04T02:09:31;40.67;;;19.00;;
3627;SDS011;1830;49.000;12.074;2023-12-04T02:11:58;39.77;;;18.73;;
3627;SDS011;1830;49.000;12.074;2023-12-04T02:14:25;40.87;;;19.60;;
3627;SDS011;1830;49.000;12.074;2023-12-04T02:16:52;45.17;;;19.87;;
3627;SDS011;1830;49.000;12.074;2023-12-04T02:19:22;39.23;;;18.73;;
3627;SDS011;1830;49.000;12.074;2023-12-04T02:21:49;42.17;;;20.10;;
3627;SDS011;1830;49.000;12.074;2023-12-04T02:24:17;41.60;;;19.97;;
3627;SDS011;1830;49.000;12.074;2023-12-04T02:26:46;40.67;;;17.37;;
3627;SDS011;1830;49.000;12.074;2023-12-04T02:29:18;40.03;;;18.90;;
3627;SDS011;1830;49.000;12.074;2023-12-04T02:31:50;47.73;;;21.63;;
3627;SDS011;1830;49.000;12.074;2023-12-04T02:34:18;47.30;;;19.80;;
3627;SDS011;1830;49.000;12.074;2023-12-04T02:36:47;41.77;;;19.27;;
3627;SDS011;1830;49.000;12.074;2023-12-04T02:39:15;42.33;;;19.17;;
3627;SDS011;1830;49.000;12.074;2023-12-04T02:41:43;51.93;;;21.40;;
3627;SDS011;1830;49.000;12.074;2023-12-04T02:44:10;48.53;;;21.90;;
3627;SDS011;1830;49.000;12.074;2023-12-04T02:46:37;44.23;;;19.90;;
3627;SDS011;1830;49.000;12.074;2023-12-04T02:49:04;47.73;;;20.73;;
3627;SDS011;1830;49.000;12.074;2023-12-04T02:51:31;57.73;;;20.77;;
3627;SDS011;1830;49.000;12.074;2023-12-04T02:53:57;48.00;;;21.83;;
3627;SDS011;1830;49.000;12.074;2023-12-04T02:56:24;44.90;;;20.00;;
3627;SDS011;1830;49.000;12.074;2023-12-04T02:58:52;53.47;;;22.43;;
3627;SDS011;1830;49.000;12.074;2023-12-04T03:01:19;45.97;;;21.37;;
3627;SDS011;1830;49.000;12.074;2023-12-04T03:03:46;47.57;;;21.40;;
3627;SDS011;1830;49.000;12.074;2023-12-04T03:06:12;45.00;;;20.70;;
3627;SDS011;1830;49.000;12.074;2023-12-04T03:08:41;43.67;;;20.00;;
3627;SDS011;1830;49.000;12.074;2023-12-04T03:11:08;45.13;;;21.07;;
3627;SDS011;1830;49.000;12.074;2023-12-04T03:13:35;46.83;;;20.37;;
3627;SDS011;1830;49.000;12.074;2023-12-04T03:16:02;52.57;;;21.70;;
3627;SDS011;1830;49.000;12.074;2023-12-04T03:18:29;43.30;;;18.57;;
3627;SDS011;1830;49.000;12.074;2023-12-04T03:20:56;43.83;;;19.67;;
3627;SDS011;1830;49.000;12.074;2023-12-04T03:23:23;45.23;;;18.73;;
3627;SDS011;1830;49.000;12.074;2023-12-04T03:25:50;46.00;;;20.37;;
3627;SDS011;1830;49.000;12.074;2023-12-04T03:28:16;49.50;;;21.10;;
3627;SDS011;1830;49.000;12.074;2023-12-04T03:30:43;50.30;;;23.50;;
3627;SDS011;1830;49.000;12.074;2023-12-04T03:33:11;48.03;;;20.87;;
3627;SDS011;1830;49.000;12.074;2023-12-04T03:35:38;46.13;;;21.00;;
3627;SDS011;1830;49.000;12.074;2023-12-04T03:38:05;39.80;;;19.90;;
3627;SDS011;1830;49.000;12.074;2023-12-04T03:40:32;50.63;;;20.73;;
3627;SDS011;1830;49.000;12.074;2023-12-04T03:42:59;47.80;;;21.77;;
3627;SDS011;1830;49.000;12.074;2023-12-04T03:45:26;42.07;;;18.63;;
3627;SDS011;1830;49.000;12.074;2023-12-04T03:47:52;47.40;;;20.90;;
3627;SDS011;1830;49.000;12.074;2023-12-04T03:50:21;47.70;;;21.83;;
3627;SDS011;1830;49.000;12.074;2023-12-04T03:52:48;37.37;;;19.80;;
3627;SDS011;1830;49.000;12.074;2023-12-04T03:55:14;42.73;;;20.00;;
3627;SDS011;1830;49.000;12.074;2023-12-04T03:57:44;45.97;;;20.07;;
3627;SDS011;1830;49.000;12.074;2023-12-04T04:00:11;43.87;;;20.83;;
3627;SDS011;1830;49.000;12.074;2023-12-04T04:02:39;49.03;;;21.73;;
3627;SDS011;1830;49.000;12.074;2023-12-04T04:05:07;35.53;;;19.67;;
3627;SDS011;1830;49.000;12.074;2023-12-04T04:07:35;46.17;;;20.30;;
3627;SDS011;1830;49.000;12.074;2023-12-04T04:10:02;38.53;;;19.13;;
3627;SDS011;1830;49.000;12.074;2023-12-04T04:12:30;41.90;;;20.97;;
3627;SDS011;1830;49.000;12.074;2023-12-04T04:14:57;46.17;;;20.20;;
3627;SDS011;1830;49.000;12.074;2023-12-04T04:17:23;50.17;;;21.30;;
3627;SDS011;1830;49.000;12.074;2023-12-04T04:19:51;40.83;;;19.00;;
3627;SDS011;1830;49.000;12.074;2023-12-04T04:22:17;45.00;;;21.00;;
3627;SDS011;1830;49.000;12.074;2023-12-04T04:24:46;44.27;;;20.60;;
3627;SDS011;1830;49.000;12.074;2023-12-04T04:27:12;47.00;;;20.93;;
3627;SDS011;1830;49.000;12.074;2023-12-04T04:29:39;47.07;;;20.57;;
3627;SDS011;1830;49.000;12.074;2023-12-04T04:32:06;46.30;;;20.63;;
3627;SDS011;1830;49.000;12.074;2023-12-04T04:34:33;43.70;;;19.70;;
3627;SDS011;1830;49.000;12.074;2023-12-04T04:37:00;40.00;;;18.90;;
3627;SDS011;1830;49.000;12.074;2023-12-04T04:39:27;41.70;;;19.70;;
3627;SDS011;1830;49.000;12.074;2023-12-04T04:41:55;39.83;;;18.90;;
3627;SDS011;1830;49.000;12.074;2023-12-04T04:44:22;34.67;;;17.87;;
3627;SDS011;1830;49.000;12.074;2023-12-04T04:46:49;43.20;;;20.13;;
3627;SDS011;1830;49.000;12.074;2023-12-04T04:49:16;39.50;;;19.03;;
3627;SDS011;1830;49.000;12.074;2023-12-04T04:51:42;45.20;;;20.30;;
3627;SDS011;1830;49.000;12.074;2023-12-04T04:54:09;41.07;;;20.40;;
3627;SDS011;1830;49.000;12.074;2023-12-04T04:56:36;39.50;;;19.50;;
3627;SDS011;1830;49.000;12.074;2023-12-04T04:59:04;42.47;;;20.53;;
3627;SDS011;1830;49.000;12.074;2023-12-04T05:01:31;47.53;;;18.83;;
3627;SDS011;1830;49.000;12.074;2023-12-04T05:03:58;40.37;;;18.40;;
3627;SDS011;1830;49.000;12.074;2023-12-04T05:06:24;42.13;;;19.70;;
3627;SDS011;1830;49.000;12.074;2023-12-04T05:08:51;38.50;;;18.23;;
3627;SDS011;1830;49.000;12.074;2023-12-04T05:11:18;40.27;;;19.60;;
3627;SDS011;1830;49.000;12.074;2023-12-04T05:13:45;46.20;;;20.30;;
3627;SDS011;1830;49.000;12.074;2023-12-04T05:16:13;45.93;;;19.20;;
3627;SDS011;1830;49.000;12.074;2023-12-04T05:18:40;41.20;;;18.17;;
3627;SDS011;1830;49.000;12.074;2023-12-04T05:21:08;42.23;;;20.57;;
3627;SDS011;1830;49.000;12.074;2023-12-04T05:23:35;41.20;;;19.13;;
3627;SDS011;1830;49.000;12.074;2023-12-04T05:26:02;36.83;;;18.10;;
3627;SDS011;1830;49.000;12.074;2023-12-04T05:28:29;45.83;;;21.20;;
3627;SDS011;1830;49.000;12.074;2023-12-04T05:30:56;39.10;;;17.83;;
3627;SDS011;1830;49.000;12.074;2023-12-04T05:33:24;40.73;;;20.07;;
3627;SDS011;1830;49.000;12.074;2023-12-04T05:35:52;38.90;;;18.70;;
3627;SDS011;1830;49.000;12.074;2023-12-04T05:38:19;44.90;;;20.77;;
3627;SDS011;1830;49.000;12.074;2023-12-04T05:40:46;27.47;;;12.67;;
3627;SDS011;1830;49.000;12.074;2023-12-04T05:43:13;46.50;;;20.47;;
3627;SDS011;1830;49.000;12.074;2023-12-04T05:45:40;45.13;;;22.17;;
3627;SDS011;1830;49.000;12.074;2023-12-04T05:48:07;36.63;;;19.17;;
3627;SDS011;1830;49.000;12.074;2023-12-04T05:50:35;36.67;;;17.63;;
3627;SDS011;1830;49.000;12.074;2023-12-04T05:53:02;37.60;;;19.63;;
3627;SDS011;1830;49.000;12.074;2023-12-04T05:55:29;42.83;;;17.23;;
3627;SDS011;1830;49.000;12.074;2023-12-04T05:57:56;41.43;;;19.50;;
3627;SDS011;1830;49.000;12.074;2023-12-04T06:00:22;33.40;;;18.37;;
3627;SDS011;1830;49.000;12.074;2023-12-04T06:02:49;43.10;;;17.70;;
3627;SDS011;1830;49.000;12.074;2023-12-04T06:05:16;45.40;;;19.00;;
3627;SDS011;1830;49.000;12.074;2023-12-04T06:07:44;37.50;;;18.07;;
3627;SDS011;1830;49.000;12.074;2023-12-04T06:10:11;38.70;;;20.67;;
3627;SDS011;1830;49.000;12.074;2023-12-04T06:12:38;46.50;;;21.20;;
3627;SDS011;1830;49.000;12.074;2023-12-04T06:15:05;52.83;;;23.00;;
3627;SDS011;1830;49.000;12.074;2023-12-04T06:17:31;55.53;;;24.67;;
3627;SDS011;1830;49.000;12.074;2023-12-04T06:19:58;71.97;;;29.30;;
3627;SDS011;1830;49.000;12.074;2023-12-04T06:22:25;59.17;;;27.10;;
3627;SDS011;1830;49.000;12.074;2023-12-04T06:24:54;47.23;;;21.80;;
3627;SDS011;1830;49.000;12.074;2023-12-04T06:27:21;53.57;;;22.37;;
3627;SDS011;1830;49.000;12.074;2023-12-04T06:29:49;44.90;;;21.90;;
3627;SDS011;1830;49.000;12.074;2023-12-04T06:32:16;45.57;;;22.20;;
3627;SDS011;1830;49.000;12.074;2023-12-04T06:34:44;42.03;;;20.90;;
3627;SDS011;1830;49.000;12.074;2023-12-04T06:37:12;35.00;;;19.30;;
3627;SDS011;1830;49.000;12.074;2023-12-04T06:39:40;44.47;;;23.13;;
3627;SDS011;1830;49.000;12.074;2023-12-04T06:42:09;48.70;;;22.40;;
3627;SDS011;1830;49.000;12.074;2023-12-04T06:44:37;40.07;;;19.17;;
3627;SDS011;1830;49.000;12.074;2023-12-04T06:47:04;39.43;;;19.20;;
3627;SDS011;1830;49.000;12.074;2023-12-04T06:49:33;40.50;;;20.50;;
3627;SDS011;1830;49.000;12.074;2023-12-04T06:52:00;50.00;;;20.53;;
3627;SDS011;1830;49.000;12.074;2023-12-04T06:54:27;39.57;;;18.10;;
3627;SDS011;1830;49.000;12.074;2023-12-04T06:56:54;38.47;;;19.53;;
3627;SDS011;1830;49.000;12.074;2023-12-04T06:59:22;37.97;;;19.77;;
3627;SDS011;1830;49.000;12.074;2023-12-04T07:01:49;43.07;;;20.63;;
3627;SDS011;1830;49.000;12.074;2023-12-04T07:04:16;41.23;;;20.77;;
3627;SDS011;1830;49.000;12.074;2023-12-04T07:06:46;39.10;;;18.30;;
3627;SDS011;1830;49.000;12.074;2023-12-04T07:09:14;40.60;;;20.13;;
3627;SDS011;1830;49.000;12.074;2023-12-04T07:11:41;40.57;;;19.20;;
3627;SDS011;1830;49.000;12.074;2023-12-04T07:14:09;36.97;;;19.47;;
3627;SDS011;1830;49.000;12.074;2023-12-04T07:16:41;37.37;;;18.40;;
3627;SDS011;1830;49.000;12.074;2023-12-04T07:19:08;38.73;;;20.63;;
3627;SDS011;1830;49.000;12.074;2023-12-04T07:21:35;37.87;;;18.70;;
3627;SDS011;1830;49.000;12.074;2023-12-04T07:24:02;38.70;;;19.50;;
3627;SDS011;1830;49.000;12.074;2023-12-04T07:26:30;41.90;;;18.83;;
3627;SDS011;1830;49.000;12.074;2023-12-04T07:28:57;34.83;;;19.07;;
3627;SDS011;1830;49.000;12.074;2023-12-04T07:31:23;41.83;;;18.33;;
3627;SDS011;1830;49.000;12.074;2023-12-04T07:33:52;38.97;;;20.30;;
3627;SDS011;1830;49.000;12.074;2023-12-04T07:36:19;45.50;;;21.07;;
3627;SDS011;1830;49.000;12.074;2023-12-04T07:38:46;43.30;;;19.20;;
3627;SDS011;1830;49.000;12.074;2023-12-04T07:41:14;38.93;;;17.10;;
3627;SDS011;1830;49.000;12.074;2023-12-04T07:43:41;34.97;;;17.23;;
3627;SDS011;1830;49.000;12.074;2023-12-04T07:46:09;35.20;;;15.90;;
3627;SDS011;1830;49.000;12.074;2023-12-04T07:48:36;35.80;;;18.60;;
3627;SDS011;1830;49.000;12.074;2023-12-04T07:51:05;36.13;;;18.60;;
3627;SDS011;1830;49.000;12.074;2023-12-04T07:53:32;37.63;;;18.00;;
3627;SDS011;1830;49.000;12.074;2023-12-04T07:56:00;40.70;;;18.60;;
3627;SDS011;1830;49.000;12.074;2023-12-04T07:58:28;36.03;;;18.00;;
3627;SDS011;1830;49.000;12.074;2023-12-04T08:00:55;40.17;;;18.73;;
3627;SDS011;1830;49.000;12.074;2023-12-04T08:03:22;36.47;;;19.03;;
3627;SDS011;1830;49.000;12.074;2023-12-04T08:05:49;40.23;;;20.17;;
3627;SDS011;1830;49.000;12.074;2023-12-04T08:08:18;43.70;;;20.43;;
3627;SDS011;1830;49.000;12.074;2023-12-04T08:10:45;37.47;;;19.07;;
3627;SDS011;1830;49.000;12.074;2023-12-04T08:13:13;37.00;;;17.87;;
3627;SDS011;1830;49.000;12.074;2023-12-04T08:15:40;46.63;;;19.97;;
3627;SDS011;1830;49.000;12.074;2023-12-04T08:18:07;40.17;;;19.70;;
3627;SDS011;1830;49.000;12.074;2023-12-04T08:20:33;42.07;;;19.83;;
3627;SDS011;1830;49.000;12.074;2023-12-04T08:23:00;53.53;;;23.20;;
3627;SDS011;1830;49.000;12.074;2023-12-04T08:25:29;41.13;;;20.00;;
3627;SDS011;1830;49.000;12.074;2023-12-04T08:27:57;40.43;;;19.00;;
3627;SDS011;1830;49.000;12.074;2023-12-04T08:30:24;40.13;;;19.30;;
3627;SDS011;1830;49.000;12.074;2023-12-04T08:32:52;40.93;;;21.50;;
3627;SDS011;1830;49.000;12.074;2023-12-04T08:35:19;43.83;;;20.93;;
3627;SDS011;1830;49.000;12.074;2023-12-04T08:37:47;39.40;;;20.03;;
3627;SDS011;1830;49.000;12.074;2023-12-04T08:40:14;39.93;;;19.60;;
3627;SDS011;1830;49.000;12.074;2023-12-04T08:42:42;47.03;;;22.93;;
3627;SDS011;1830;49.000;12.074;2023-12-04T08:45:10;43.87;;;21.10;;
3627;SDS011;1830;49.000;12.074;2023-12-04T08:47:37;45.10;;;21.93;;
3627;SDS011;1830;49.000;12.074;2023-12-04T08:50:04;39.37;;;19.50;;
3627;SDS011;1830;49.000;12.074;2023-12-04T08:52:31;42.00;;;20.80;;
3627;SDS011;1830;49.000;12.074;2023-12-04T08:54:59;42.20;;;21.33;;
3627;SDS011;1830;49.000;12.074;2023-12-04T08:57:26;47.43;;;22.20;;
3627;SDS011;1830;49.000;12.074;2023-12-04T08:59:53;37.73;;;19.47;;
3627;SDS011;1830;49.000;12.074;2023-12-04T09:02:20;39.40;;;18.40;;
3627;SDS011;1830;49.000;12.074;2023-12-04T09:04:47;46.20;;;22.07;;
3627;SDS011;1830;49.000;12.074;2023-12-04T09:07:14;44.17;;;23.10;;
3627;SDS011;1830;49.000;12.074;2023-12-04T09:09:42;40.80;;;19.97;;
3627;SDS011;1830;49.000;12.074;2023-12-04T09:12:09;49.27;;;21.67;;
3627;SDS011;1830;49.000;12.074;2023-12-04T09:14:36;37.00;;;18.70;;
3627;SDS011;1830;49.000;12.074;2023-12-04T09:17:04;42.77;;;21.50;;
3627;SDS011;1830;49.000;12.074;2023-12-04T09:19:31;47.10;;;19.70;;
3627;SDS011;1830;49.000;12.074;2023-12-04T09:21:58;45.13;;;22.17;;
3627;SDS011;1830;49.000;12.074;2023-12-04T09:24:25;41.47;;;20.53;;
3627;SDS011;1830;49.000;12.074;2023-12-04T09:26:52;49.80;;;20.70;;
3627;SDS011;1830;49.000;12.074;2023-12-04T09:29:20;59.50;;;25.83;;
3627;SDS011;1830;49.000;12.074;2023-12-04T09:31:49;53.20;;;23.97;;
3627;SDS011;1830;49.000;12.074;2023-12-04T09:34:17;47.33;;;23.80;;
3627;SDS011;1830;49.000;12.074;2023-12-04T09:36:45;58.50;;;29.77;;
3627;SDS011;1830;49.000;12.074;2023-12-04T09:39:12;56.37;;;26.20;;
3627;SDS011;1830;49.000;12.074;2023-12-04T09:41:39;50.53;;;23.53;;
3627;SDS011;1830;49.000;12.074;2023-12-04T09:44:08;45.60;;;22.33;;
3627;SDS011;1830;49.000;12.074;2023-12-04T09:46:35;48.10;;;24.67;;
3627;SDS011;1830;49.000;12.074;2023-12-04T09:49:02;42.63;;;21.60;;
3627;SDS011;1830;49.000;12.074;2023-12-04T09:51:31;51.60;;;23.63;;
3627;SDS011;1830;49.000;12.074;2023-12-04T09:53:59;44.23;;;22.00;;
3627;SDS011;1830;49.000;12.074;2023-12-04T09:56:29;42.33;;;20.70;;
3627;SDS011;1830;49.000;12.074;2023-12-04T09:58:57;42.90;;;20.90;;
3627;SDS011;1830;49.000;12.074;2023-12-04T10:01:25;49.50;;;22.93;;
3627;SDS011;1830;49.000;12.074;2023-12-04T10:03:54;41.47;;;21.67;;
3627;SDS011;1830;49.000;12.074;2023-12-04T10:06:23;42.07;;;22.13;;
3627;SDS011;1830;49.000;12.074;2023-12-04T10:08:55;45.23;;;21.27;;
3627;SDS011;1830;49.000;12.074;2023-12-04T10:11:23;47.40;;;23.40;;
3627;SDS011;1830;49.000;12.074;2023-12-04T10:13:51;48.07;;;23.40;;
3627;SDS011;1830;49.000;12.074;2023-12-04T10:16:31;49.53;;;23.90;;
3627;SDS011;1830;49.000;12.074;2023-12-04T10:19:13;47.63;;;22.70;;
3627;SDS011;1830;49.000;12.074;2023-12-04T10:21:42;52.83;;;22.90;;
3627;SDS011;1830;49.000;12.074;2023-12-04T10:24:10;46.73;;;23.57;;
3627;SDS011;1830;49.000;12.074;2023-12-04T10:26:37;48.93;;;22.63;;
3627;SDS011;1830;49.000;12.074;2023-12-04T10:29:15;42.30;;;22.97;;
3627;SDS011;1830;49.000;12.074;2023-12-04T10:31:42;42.00;;;21.23;;
3627;SDS011;1830;49.000;12.074;2023-12-04T10:34:09;46.10;;;23.20;;
3627;SDS011;1830;49.000;12.074;2023-12-04T10:36:36;41.03;;;20.27;;
3627;SDS011;1830;49.000;12.074;2023-12-04T10:39:03;36.10;;;19.90;;
3627;SDS011;1830;49.000;12.074;2023-12-04T10:41:31;45.43;;;20.60;;
3627;SDS011;1830;49.000;12.074;2023-12-04T10:43:58;44.67;;;21.43;;
3627;SDS011;1830;49.000;12.074;2023-12-04T10:46:26;40.13;;;19.37;;
3627;SDS011;1830;49.000;12.074;2023-12-04T10:48:53;43.30;;;20.50;;
3627;SDS011;1830;49.000;12.074;2023-12-04T10:51:21;47.83;;;20.73;;
3627;SDS011;1830;49.000;12.074;2023-12-04T10:53:48;50.93;;;21.03;;
3627;SDS011;1830;49.000;12.074;2023-12-04T10:56:17;79.60;;;29.00;;
3627;SDS011;1830;49.000;12.074;2023-12-04T10:58:48;64.60;;;28.00;;
3627;SDS011;1830;49.000;12.074;2023-12-04T11:03:47;48.07;;;22.50;;
3627;SDS011;1830;49.000;12.074;2023-12-04T11:06:16;42.23;;;20.60;;
3627;SDS011;1830;49.000;12.074;2023-12-04T11:08:44;34.60;;;18.60;;
3627;SDS011;1830;49.000;12.074;2023-12-04T11:11:18;42.30;;;21.07;;
3627;SDS011;1830;49.000;12.074;2023-12-04T11:13:50;39.57;;;20.27;;
3627;SDS011;1830;49.000;12.074;2023-12-04T11:16:28;40.37;;;21.10;;
3627;SDS011;1830;49.000;12.074;2023-12-04T11:19:02;37.63;;;19.50;;
3627;SDS011;1830;49.000;12.074;2023-12-04T11:21:37;43.50;;;20.03;;
3627;SDS011;1830;49.000;12.074;2023-12-04T11:24:05;39.37;;;19.33;;
3627;SDS011;1830;49.000;12.074;2023-12-04T11:26:33;34.97;;;18.40;;
3627;SDS011;1830;49.000;12.074;2023-12-04T11:29:02;44.40;;;19.83;;
3627;SDS011;1830;49.000;12.074;2023-12-04T11:31:30;37.50;;;19.00;;
3627;SDS011;1830;49.000;12.074;2023-12-04T11:34:01;39.03;;;19.33;;
3627;SDS011;1830;49.000;12.074;2023-12-04T11:36:28;38.83;;;19.73;;
3627;SDS011;1830;49.000;12.074;2023-12-04T11:38:56;43.97;;;18.60;;
3627;SDS011;1830;49.000;12.074;2023-12-04T11:41:23;39.50;;;20.50;;
3627;SDS011;1830;49.000;12.074;2023-12-04T11:43:51;37.87;;;18.50;;
3627;SDS011;1830;49.000;12.074;2023-12-04T11:46:20;36.60;;;18.50;;
3627;SDS011;1830;49.000;12.074;2023-12-04T11:48:48;38.00;;;17.80;;
3627;SDS011;1830;49.000;12.074;2023-12-04T11:51:15;34.17;;;17.40;;
3627;SDS011;1830;49.000;12.074;2023-12-04T11:54:14;33.07;;;17.20;;
3627;SDS011;1830;49.000;12.074;2023-12-04T11:56:43;37.73;;;19.27;;
3627;SDS011;1830;49.000;12.074;2023-12-04T11:59:23;40.17;;;19.70;;
3627;SDS011;1830;49.000;12.074;2023-12-04T12:01:53;37.70;;;18.80;;
3627;SDS011;1830;49.000;12.074;2023-12-04T12:04:21;38.53;;;18.37;;
3627;SDS011;1830;49.000;12.074;2023-12-04T12:06:48;38.53;;;19.03;;
3627;SDS011;1830;49.000;12.074;2023-12-04T12:09:15;37.37;;;18.67;;
3627;SDS011;1830;49.000;12.074;2023-12-04T12:11:42;45.37;;;18.77;;
3627;SDS011;1830;49.000;12.074;2023-12-04T12:14:10;33.37;;;17.30;;
3627;SDS011;1830;49.000;12.074;2023-12-04T12:16:37;35.80;;;17.80;;
3627;SDS011;1830;49.000;12.074;2023-12-04T12:19:05;37.60;;;18.20;;
3627;SDS011;1830;49.000;12.074;2023-12-04T12:21:31;38.80;;;18.00;;
3627;SDS011;1830;49.000;12.074;2023-12-04T12:23:58;39.70;;;20.53;;
3627;SDS011;1830;49.000;12.074;2023-12-04T12:26:26;36.77;;;18.20;;
3627;SDS011;1830;49.000;12.074;2023-12-04T12:28:54;35.13;;;18.53;;
3627;SDS011;1830;49.000;12.074;2023-12-04T12:31:21;31.43;;;17.13;;
3627;SDS011;1830;49.000;12.074;2023-12-04T12:33:48;29.03;;;16.37;;
3627;SDS011;1830;49.000;12.074;2023-12-04T12:36:16;50.00;;;16.80;;
3627;SDS011;1830;49.000;12.074;2023-12-04T12:38:44;31.57;;;15.30;;
3627;SDS011;1830;49.000;12.074;2023-12-04T12:41:14;27.27;;;13.60;;
3627;SDS011;1830;49.000;12.074;2023-12-04T12:43:41;31.57;;;15.27;;
3627;SDS011;1830;49.000;12.074;2023-12-04T12:46:08;22.00;;;12.97;;
3627;SDS011;1830;49.000;12.074;2023-12-04T12:48:36;25.67;;;13.20;;
3627;SDS011;1830;49.000;12.074;2023-12-04T12:51:03;23.33;;;13.07;;
3627;SDS011;1830;49.000;12.074;2023-12-04T12:53:33;25.37;;;13.63;;
3627;SDS011;1830;49.000;12.074;2023-12-04T12:56:00;34.40;;;14.60;;
3627;SDS011;1830;49.000;12.074;2023-12-04T12:58:27;27.37;;;14.80;;
3627;SDS011;1830;49.000;12.074;2023-12-04T13:00:54;26.83;;;13.50;;
3627;SDS011;1830;49.000;12.074;2023-12-04T13:03:21;22.50;;;12.77;;
3627;SDS011;1830;49.000;12.074;2023-12-04T13:05:49;21.20;;;12.67;;
3627;SDS011;1830;49.000;12.074;2023-12-04T13:08:15;24.27;;;12.63;;
3627;SDS011;1830;49.000;12.074;2023-12-04T13:10:44;29.67;;;15.00;;
3627;SDS011;1830;49.000;12.074;2023-12-04T13:13:10;24.27;;;13.17;;
3627;SDS011;1830;49.000;12.074;2023-12-04T13:15:37;29.67;;;13.30;;
3627;SDS011;1830;49.000;12.074;2023-12-04T13:18:05;20.27;;;12.17;;
3627;SDS011;1830;49.000;12.074;2023-12-04T13:20:31;27.83;;;13.43;;
3627;SDS011;1830;49.000;12.074;2023-12-04T13:22:59;29.70;;;13.80;;
3627;SDS011;1830;49.000;12.074;2023-12-04T13:25:26;20.20;;;12.20;;
3627;SDS011;1830;49.000;12.074;2023-12-04T13:27:54;35.37;;;17.20;;
3627;SDS011;1830;49.000;12.074;2023-12-04T13:30:21;36.47;;;17.50;;
3627;SDS011;1830;49.000;12.074;2023-12-04T13:32:48;22.37;;;12.43;;
3627;SDS011;1830;49.000;12.074;2023-12-04T13:35:15;26.57;;;14.40;;
3627;SDS011;1830;49.000;12.074;2023-12-04T13:37:42;23.57;;;13.10;;
3627;SDS011;1830;49.000;12.074;2023-12-04T13:40:09;26.70;;;12.03;;
3627;SDS011;1830;49.000;12.074;2023-12-04T13:42:41;24.23;;;12.83;;
3627;SDS011;1830;49.000;12.074;2023-12-04T13:45:26;23.93;;;12.37;;
3627;SDS011;1830;49.000;12.074;2023-12-04T13:47:53;26.80;;;13.37;;
3627;SDS011;1830;49.000;12.074;2023-12-04T13:50:20;22.40;;;12.63;;
3627;SDS011;1830;49.000;12.074;2023-12-04T13:52:46;23.90;;;12.10;;
3627;SDS011;1830;49.000;12.074;2023-12-04T13:55:20;22.33;;;12.47;;
3627;SDS011;1830;49.000;12.074;2023-12-04T13:58:01;19.60;;;11.90;;
3627;SDS011;1830;49.000;12.074;2023-12-04T14:00:37;20.33;;;12.00;;
3627;SDS011;1830;49.000;12.074;2023-12-04T14:03:03;21.57;;;12.47;;
3627;SDS011;1830;49.000;12.074;2023-12-04T14:05:32;22.60;;;12.40;;
3627;SDS011;1830;49.000;12.074;2023-12-04T14:07:59;20.20;;;10.50;;
3627;SDS011;1830;49.000;12.074;2023-12-04T14:10:26;20.70;;;12.33;;
3627;SDS011;1830;49.000;12.074;2023-12-04T14:12:53;20.27;;;11.03;;
3627;SDS011;1830;49.000;12.074;2023-12-04T14:15:20;24.23;;;12.40;;
3627;SDS011;1830;49.000;12.074;2023-12-04T14:17:49;23.13;;;12.63;;
3627;SDS011;1830;49.000;12.074;2023-12-04T14:20:16;19.40;;;11.20;;
3627;SDS011;1830;49.000;12.074;2023-12-04T14:22:43;22.33;;;12.20;;
3627;SDS011;1830;49.000;12.074;2023-12-04T14:25:11;22.07;;;12.67;;
3627;SDS011;1830;49.000;12.074;2023-12-04T14:27:38;19.77;;;11.70;;
3627;SDS011;1830;49.000;12.074;2023-12-04T14:30:06;27.43;;;13.00;;
3627;SDS011;1830;49.000;12.074;2023-12-04T14:32:33;36.20;;;14.90;;
3627;SDS011;1830;49.000;12.074;2023-12-04T14:35:02;28.20;;;13.73;;
3627;SDS011;1830;49.000;12.074;2023-12-04T14:37:30;31.50;;;14.47;;
3627;SDS011;1830;49.000;12.074;2023-12-04T14:39:56;31.90;;;15.70;;